sensor_id;sensor_type;location;lat;lon;timestamp;P1;durP1;ratioP1;P2;durP2;ratioP2
5650;SDS011;40241;52.684;9.758;2023-01-06T00:01:06;8.67;;;4.63;;
5650;SDS011;40241;52.684;9.758;2023-01-06T00:03:33;12.03;;;4.70;;
5650;SDS011;40241;52.684;9.758;2023-01-06T00:05:59;9.53;;;4.80;;
5650;SDS011;40241;52.684;9.758;2023-01-06T00:08:26;5.40;;;4.43;;
5650;SDS011;40241;52.684;9.758;2023-01-06T00:10:52;7.03;;;4.37;;
5650;SDS011;40241;52.684;9.758;2023-01-06T00:13:18;15.40;;;5.70;;
5650;SDS011;40241;52.684;9.758;2023-01-06T00:15:43;8.80;;;5.40;;
5650;SDS011;40241;52.684;9.758;2023-01-06T00:18:09;17.80;;;6.40;;
5650;SDS011;40241;52.684;9.758;2023-01-06T00:20:34;17.17;;;5.80;;
5650;SDS011;40241;52.684;9.758;2023-01-06T00:22:59;10.67;;;5.10;;
5650;SDS011;40241;52.684;9.758;2023-01-06T00:25:25;5.03;;;4.53;;
5650;SDS011;40241;52.684;9.758;2023-01-06T00:27:50;21.07;;;6.00;;
5650;SDS011;40241;52.684;9.758;2023-01-06T00:30:16;16.47;;;6.40;;
5650;SDS011;40241;52.684;9.758;2023-01-06T00:32:41;9.30;;;4.97;;
5650;SDS011;40241;52.684;9.758;2023-01-06T00:35:06;12.10;;;6.30;;
5650;SDS011;40241;52.684;9.758;2023-01-06T00:37:32;13.60;;;6.50;;
5650;SDS011;40241;52.684;9.758;2023-01-06T00:39:58;31.53;;;7.63;;
5650;SDS011;40241;52.684;9.758;2023-01-06T00:42:23;11.80;;;6.20;;
5650;SDS011;40241;52.684;9.758;2023-01-06T00:44:49;8.70;;;6.20;;
5650;SDS011;40241;52.684;9.758;2023-01-06T00:47:14;16.17;;;6.57;;
5650;SDS011;40241;52.684;9.758;2023-01-06T00:49:40;10.63;;;5.73;;
5650;SDS011;40241;52.684;9.758;2023-01-06T00:52:06;15.77;;;6.87;;
5650;SDS011;40241;52.684;9.758;2023-01-06T00:54:31;17.73;;;6.23;;
5650;SDS011;40241;52.684;9.758;2023-01-06T00:56:56;15.40;;;7.00;;
5650;SDS011;40241;52.684;9.758;2023-01-06T00:59:22;13.27;;;6.23;;
5650;SDS011;40241;52.684;9.758;2023-01-06T01:01:52;12.40;;;6.60;;
5650;SDS011;40241;52.684;9.758;2023-01-06T01:04:20;15.00;;;6.53;;
5650;SDS011;40241;52.684;9.758;2023-01-06T01:06:46;16.73;;;6.30;;
5650;SDS011;40241;52.684;9.758;2023-01-06T01:09:14;13.53;;;6.50;;
5650;SDS011;40241;52.684;9.758;2023-01-06T01:11:41;16.53;;;5.87;;
5650;SDS011;40241;52.684;9.758;2023-01-06T01:14:25;17.43;;;5.67;;
5650;SDS011;40241;52.684;9.758;2023-01-06T01:16:51;13.77;;;6.50;;
5650;SDS011;40241;52.684;9.758;2023-01-06T01:19:16;8.93;;;5.87;;
5650;SDS011;40241;52.684;9.758;2023-01-06T01:21:42;19.70;;;5.50;;
5650;SDS011;40241;52.684;9.758;2023-01-06T01:24:08;15.10;;;5.40;;
5650;SDS011;40241;52.684;9.758;2023-01-06T01:26:34;10.47;;;4.80;;
5650;SDS011;40241;52.684;9.758;2023-01-06T01:28:59;13.97;;;5.43;;
5650;SDS011;40241;52.684;9.758;2023-01-06T01:31:25;14.77;;;5.50;;
5650;SDS011;40241;52.684;9.758;2023-01-06T01:33:51;14.03;;;6.17;;
5650;SDS011;40241;52.684;9.758;2023-01-06T01:36:16;11.20;;;5.40;;
5650;SDS011;40241;52.684;9.758;2023-01-06T01:38:42;11.27;;;5.43;;
5650;SDS011;40241;52.684;9.758;2023-01-06T01:41:10;9.20;;;5.50;;
5650;SDS011;40241;52.684;9.758;2023-01-06T01:46:20;10.33;;;5.40;;
5650;SDS011;40241;52.684;9.758;2023-01-06T01:48:53;8.00;;;4.63;;
5650;SDS011;40241;52.684;9.758;2023-01-06T01:51:22;10.30;;;6.10;;
5650;SDS011;40241;52.684;9.758;2023-01-06T01:53:52;10.73;;;5.30;;
5650;SDS011;40241;52.684;9.758;2023-01-06T01:56:22;10.10;;;4.77;;
5650;SDS011;40241;52.684;9.758;2023-01-06T01:58:53;11.27;;;5.30;;
5650;SDS011;40241;52.684;9.758;2023-01-06T02:01:22;10.53;;;4.73;;
5650;SDS011;40241;52.684;9.758;2023-01-06T02:03:47;10.27;;;4.80;;
5650;SDS011;40241;52.684;9.758;2023-01-06T02:06:18;11.90;;;4.73;;
5650;SDS011;40241;52.684;9.758;2023-01-06T02:08:51;11.87;;;4.90;;
5650;SDS011;40241;52.684;9.758;2023-01-06T02:11:23;11.00;;;5.07;;
5650;SDS011;40241;52.684;9.758;2023-01-06T02:13:52;14.30;;;5.10;;
5650;SDS011;40241;52.684;9.758;2023-01-06T02:30:47;7.50;;;4.60;;
5650;SDS011;40241;52.684;9.758;2023-01-06T02:33:38;11.90;;;4.13;;
5650;SDS011;40241;52.684;9.758;2023-01-06T02:39:24;7.80;;;3.90;;
5650;SDS011;40241;52.684;9.758;2023-01-06T02:42:07;11.37;;;3.90;;
5650;SDS011;40241;52.684;9.758;2023-01-06T02:47:49;13.53;;;4.40;;
5650;SDS011;40241;52.684;9.758;2023-01-06T02:58:14;11.50;;;4.67;;
5650;SDS011;40241;52.684;9.758;2023-01-06T03:00:49;5.60;;;4.00;;
5650;SDS011;40241;52.684;9.758;2023-01-06T03:03:21;10.10;;;4.47;;
5650;SDS011;40241;52.684;9.758;2023-01-06T03:05:51;8.43;;;4.90;;
5650;SDS011;40241;52.684;9.758;2023-01-06T03:08:23;7.20;;;3.73;;
5650;SDS011;40241;52.684;9.758;2023-01-06T03:10:52;6.87;;;3.73;;
5650;SDS011;40241;52.684;9.758;2023-01-06T03:13:24;5.23;;;3.70;;
5650;SDS011;40241;52.684;9.758;2023-01-06T03:15:51;7.50;;;3.90;;
5650;SDS011;40241;52.684;9.758;2023-01-06T03:18:17;11.37;;;4.50;;
5650;SDS011;40241;52.684;9.758;2023-01-06T03:20:43;5.73;;;3.83;;
5650;SDS011;40241;52.684;9.758;2023-01-06T03:23:11;5.20;;;3.47;;
5650;SDS011;40241;52.684;9.758;2023-01-06T03:25:37;6.37;;;4.00;;
5650;SDS011;40241;52.684;9.758;2023-01-06T03:28:02;7.77;;;4.00;;
5650;SDS011;40241;52.684;9.758;2023-01-06T03:30:30;7.97;;;4.03;;
5650;SDS011;40241;52.684;9.758;2023-01-06T03:33:12;3.67;;;3.37;;
5650;SDS011;40241;52.684;9.758;2023-01-06T03:42:34;5.00;;;3.40;;
5650;SDS011;40241;52.684;9.758;2023-01-06T03:47:45;3.10;;;2.50;;
5650;SDS011;40241;52.684;9.758;2023-01-06T03:50:44;4.50;;;2.97;;
5650;SDS011;40241;52.684;9.758;2023-01-06T03:55:50;4.13;;;3.20;;
5650;SDS011;40241;52.684;9.758;2023-01-06T03:58:22;4.10;;;3.73;;
5650;SDS011;40241;52.684;9.758;2023-01-06T04:00:50;3.23;;;2.90;;
5650;SDS011;40241;52.684;9.758;2023-01-06T04:03:16;4.50;;;3.00;;
5650;SDS011;40241;52.684;9.758;2023-01-06T04:05:41;4.00;;;3.40;;
5650;SDS011;40241;52.684;9.758;2023-01-06T04:08:07;3.67;;;3.07;;
5650;SDS011;40241;52.684;9.758;2023-01-06T04:10:32;3.37;;;3.07;;
5650;SDS011;40241;52.684;9.758;2023-01-06T04:12:58;3.17;;;2.97;;
5650;SDS011;40241;52.684;9.758;2023-01-06T04:15:24;4.00;;;3.63;;
5650;SDS011;40241;52.684;9.758;2023-01-06T04:17:53;6.50;;;3.80;;
5650;SDS011;40241;52.684;9.758;2023-01-06T04:20:20;5.10;;;4.10;;
5650;SDS011;40241;52.684;9.758;2023-01-06T04:22:47;3.60;;;3.30;;
5650;SDS011;40241;52.684;9.758;2023-01-06T04:25:12;3.90;;;3.50;;
5650;SDS011;40241;52.684;9.758;2023-01-06T04:27:38;3.20;;;3.00;;
5650;SDS011;40241;52.684;9.758;2023-01-06T04:30:04;3.90;;;3.50;;
5650;SDS011;40241;52.684;9.758;2023-01-06T04:32:31;3.90;;;2.80;;
5650;SDS011;40241;52.684;9.758;2023-01-06T04:34:56;3.63;;;3.33;;
5650;SDS011;40241;52.684;9.758;2023-01-06T04:37:22;6.67;;;4.00;;
5650;SDS011;40241;52.684;9.758;2023-01-06T04:39:47;4.03;;;3.27;;
5650;SDS011;40241;52.684;9.758;2023-01-06T04:42:13;5.03;;;2.90;;
5650;SDS011;40241;52.684;9.758;2023-01-06T04:44:39;6.77;;;3.70;;
5650;SDS011;40241;52.684;9.758;2023-01-06T04:47:06;6.57;;;4.30;;
5650;SDS011;40241;52.684;9.758;2023-01-06T04:49:31;4.50;;;3.60;;
5650;SDS011;40241;52.684;9.758;2023-01-06T04:51:56;12.47;;;3.17;;
5650;SDS011;40241;52.684;9.758;2023-01-06T04:54:22;5.53;;;3.70;;
5650;SDS011;40241;52.684;9.758;2023-01-06T04:56:47;4.60;;;3.60;;
5650;SDS011;40241;52.684;9.758;2023-01-06T04:59:13;5.60;;;3.70;;
5650;SDS011;40241;52.684;9.758;2023-01-06T05:01:38;4.07;;;3.40;;
5650;SDS011;40241;52.684;9.758;2023-01-06T05:04:03;4.90;;;4.10;;
5650;SDS011;40241;52.684;9.758;2023-01-06T05:06:31;4.90;;;4.40;;
5650;SDS011;40241;52.684;9.758;2023-01-06T05:08:56;11.37;;;4.33;;
5650;SDS011;40241;52.684;9.758;2023-01-06T05:11:22;4.23;;;3.47;;
5650;SDS011;40241;52.684;9.758;2023-01-06T05:13:49;4.70;;;4.30;;
5650;SDS011;40241;52.684;9.758;2023-01-06T05:18:44;6.20;;;4.90;;
5650;SDS011;40241;52.684;9.758;2023-01-06T05:21:10;9.27;;;5.90;;
5650;SDS011;40241;52.684;9.758;2023-01-06T05:23:36;5.23;;;4.70;;
5650;SDS011;40241;52.684;9.758;2023-01-06T05:26:02;5.97;;;4.87;;
5650;SDS011;40241;52.684;9.758;2023-01-06T05:28:28;6.40;;;5.40;;
5650;SDS011;40241;52.684;9.758;2023-01-06T05:30:57;6.83;;;5.13;;
5650;SDS011;40241;52.684;9.758;2023-01-06T05:33:24;5.87;;;5.27;;
5650;SDS011;40241;52.684;9.758;2023-01-06T05:35:55;6.73;;;5.37;;
5650;SDS011;40241;52.684;9.758;2023-01-06T05:38:21;8.67;;;5.90;;
5650;SDS011;40241;52.684;9.758;2023-01-06T05:40:49;5.90;;;5.17;;
5650;SDS011;40241;52.684;9.758;2023-01-06T05:43:15;6.27;;;5.70;;
5650;SDS011;40241;52.684;9.758;2023-01-06T05:45:40;6.00;;;5.00;;
5650;SDS011;40241;52.684;9.758;2023-01-06T05:48:06;6.93;;;5.07;;
5650;SDS011;40241;52.684;9.758;2023-01-06T05:50:31;8.03;;;5.27;;
5650;SDS011;40241;52.684;9.758;2023-01-06T05:52:57;5.77;;;5.23;;
5650;SDS011;40241;52.684;9.758;2023-01-06T05:55:22;6.03;;;5.50;;
5650;SDS011;40241;52.684;9.758;2023-01-06T05:57:47;8.43;;;5.70;;
5650;SDS011;40241;52.684;9.758;2023-01-06T06:00:13;5.57;;;5.07;;
5650;SDS011;40241;52.684;9.758;2023-01-06T06:02:39;7.70;;;5.00;;
5650;SDS011;40241;52.684;9.758;2023-01-06T06:05:04;5.33;;;4.37;;
5650;SDS011;40241;52.684;9.758;2023-01-06T06:07:30;8.57;;;5.00;;
5650;SDS011;40241;52.684;9.758;2023-01-06T06:09:55;7.70;;;4.77;;
5650;SDS011;40241;52.684;9.758;2023-01-06T06:12:20;6.27;;;4.87;;
5650;SDS011;40241;52.684;9.758;2023-01-06T06:14:46;4.77;;;4.27;;
5650;SDS011;40241;52.684;9.758;2023-01-06T06:17:11;7.00;;;4.07;;
5650;SDS011;40241;52.684;9.758;2023-01-06T06:19:37;4.33;;;3.87;;
5650;SDS011;40241;52.684;9.758;2023-01-06T06:22:02;6.70;;;3.70;;
5650;SDS011;40241;52.684;9.758;2023-01-06T06:24:27;3.63;;;3.17;;
5650;SDS011;40241;52.684;9.758;2023-01-06T06:26:53;4.80;;;3.60;;
5650;SDS011;40241;52.684;9.758;2023-01-06T06:29:18;4.87;;;3.50;;
5650;SDS011;40241;52.684;9.758;2023-01-06T06:31:43;3.43;;;3.23;;
5650;SDS011;40241;52.684;9.758;2023-01-06T06:34:09;3.77;;;3.10;;
5650;SDS011;40241;52.684;9.758;2023-01-06T06:36:37;3.90;;;3.50;;
5650;SDS011;40241;52.684;9.758;2023-01-06T06:39:02;2.57;;;2.43;;
5650;SDS011;40241;52.684;9.758;2023-01-06T06:41:28;3.40;;;3.10;;
5650;SDS011;40241;52.684;9.758;2023-01-06T06:43:53;2.70;;;2.50;;
5650;SDS011;40241;52.684;9.758;2023-01-06T06:46:19;2.50;;;2.27;;
5650;SDS011;40241;52.684;9.758;2023-01-06T06:48:44;6.87;;;3.30;;
5650;SDS011;40241;52.684;9.758;2023-01-06T06:51:11;4.50;;;2.80;;
5650;SDS011;40241;52.684;9.758;2023-01-06T06:53:38;3.53;;;2.50;;
5650;SDS011;40241;52.684;9.758;2023-01-06T06:56:05;3.03;;;2.23;;
5650;SDS011;40241;52.684;9.758;2023-01-06T06:58:31;1.73;;;1.63;;
5650;SDS011;40241;52.684;9.758;2023-01-06T07:00:57;1.57;;;1.47;;
5650;SDS011;40241;52.684;9.758;2023-01-06T07:03:23;1.70;;;1.60;;
5650;SDS011;40241;52.684;9.758;2023-01-06T07:05:49;1.80;;;1.37;;
5650;SDS011;40241;52.684;9.758;2023-01-06T07:08:16;2.83;;;1.60;;
5650;SDS011;40241;52.684;9.758;2023-01-06T07:10:42;3.73;;;1.23;;
5650;SDS011;40241;52.684;9.758;2023-01-06T07:13:07;2.03;;;1.00;;
5650;SDS011;40241;52.684;9.758;2023-01-06T07:15:33;1.23;;;0.90;;
5650;SDS011;40241;52.684;9.758;2023-01-06T07:18:02;8.77;;;1.60;;
5650;SDS011;40241;52.684;9.758;2023-01-06T07:20:29;1.93;;;1.30;;
5650;SDS011;40241;52.684;9.758;2023-01-06T07:22:56;2.10;;;0.80;;
5650;SDS011;40241;52.684;9.758;2023-01-06T07:25:21;1.43;;;0.97;;
5650;SDS011;40241;52.684;9.758;2023-01-06T07:27:46;3.37;;;0.70;;
5650;SDS011;40241;52.684;9.758;2023-01-06T07:30:17;1.10;;;1.03;;
5650;SDS011;40241;52.684;9.758;2023-01-06T07:32:42;1.00;;;0.60;;
5650;SDS011;40241;52.684;9.758;2023-01-06T07:35:08;1.83;;;0.90;;
5650;SDS011;40241;52.684;9.758;2023-01-06T07:37:34;1.03;;;0.63;;
5650;SDS011;40241;52.684;9.758;2023-01-06T07:39:59;1.27;;;0.77;;
5650;SDS011;40241;52.684;9.758;2023-01-06T07:42:24;0.60;;;0.60;;
5650;SDS011;40241;52.684;9.758;2023-01-06T07:44:50;2.93;;;0.53;;
5650;SDS011;40241;52.684;9.758;2023-01-06T07:47:15;0.73;;;0.70;;
5650;SDS011;40241;52.684;9.758;2023-01-06T07:49:40;0.67;;;0.67;;
5650;SDS011;40241;52.684;9.758;2023-01-06T07:52:06;2.83;;;0.90;;
5650;SDS011;40241;52.684;9.758;2023-01-06T07:54:31;1.37;;;0.50;;
5650;SDS011;40241;52.684;9.758;2023-01-06T07:56:57;0.80;;;0.40;;
5650;SDS011;40241;52.684;9.758;2023-01-06T07:59:22;0.70;;;0.60;;
5650;SDS011;40241;52.684;9.758;2023-01-06T08:01:47;1.27;;;0.60;;
5650;SDS011;40241;52.684;9.758;2023-01-06T08:04:13;2.70;;;0.90;;
5650;SDS011;40241;52.684;9.758;2023-01-06T08:06:38;2.37;;;0.90;;
5650;SDS011;40241;52.684;9.758;2023-01-06T08:09:04;2.07;;;0.87;;
5650;SDS011;40241;52.684;9.758;2023-01-06T08:11:30;0.97;;;0.70;;
5650;SDS011;40241;52.684;9.758;2023-01-06T08:13:55;1.47;;;0.57;;
5650;SDS011;40241;52.684;9.758;2023-01-06T08:16:20;2.40;;;0.70;;
5650;SDS011;40241;52.684;9.758;2023-01-06T08:18:46;2.30;;;0.53;;
5650;SDS011;40241;52.684;9.758;2023-01-06T08:21:11;0.80;;;0.80;;
5650;SDS011;40241;52.684;9.758;2023-01-06T08:23:36;2.50;;;0.70;;
5650;SDS011;40241;52.684;9.758;2023-01-06T08:26:06;1.17;;;0.70;;
5650;SDS011;40241;52.684;9.758;2023-01-06T08:28:42;1.13;;;0.70;;
5650;SDS011;40241;52.684;9.758;2023-01-06T08:31:09;1.23;;;0.70;;
5650;SDS011;40241;52.684;9.758;2023-01-06T08:33:36;1.77;;;0.80;;
5650;SDS011;40241;52.684;9.758;2023-01-06T08:36:02;0.80;;;0.80;;
5650;SDS011;40241;52.684;9.758;2023-01-06T08:38:29;1.20;;;0.97;;
5650;SDS011;40241;52.684;9.758;2023-01-06T08:40:56;1.00;;;0.67;;
5650;SDS011;40241;52.684;9.758;2023-01-06T08:43:23;1.83;;;1.43;;
5650;SDS011;40241;52.684;9.758;2023-01-06T08:45:50;0.90;;;0.60;;
5650;SDS011;40241;52.684;9.758;2023-01-06T08:48:15;2.80;;;0.80;;
5650;SDS011;40241;52.684;9.758;2023-01-06T08:50:41;1.63;;;0.53;;
5650;SDS011;40241;52.684;9.758;2023-01-06T08:53:07;1.20;;;0.70;;
5650;SDS011;40241;52.684;9.758;2023-01-06T08:55:36;1.47;;;0.90;;
5650;SDS011;40241;52.684;9.758;2023-01-06T08:58:03;0.63;;;0.63;;
5650;SDS011;40241;52.684;9.758;2023-01-06T09:00:29;1.70;;;0.90;;
5650;SDS011;40241;52.684;9.758;2023-01-06T09:02:55;0.90;;;0.80;;
5650;SDS011;40241;52.684;9.758;2023-01-06T09:05:20;1.90;;;0.67;;
5650;SDS011;40241;52.684;9.758;2023-01-06T09:07:45;1.30;;;1.20;;
5650;SDS011;40241;52.684;9.758;2023-01-06T09:10:11;0.97;;;0.97;;
5650;SDS011;40241;52.684;9.758;2023-01-06T09:12:36;1.57;;;0.67;;
5650;SDS011;40241;52.684;9.758;2023-01-06T09:15:03;1.73;;;1.00;;
5650;SDS011;40241;52.684;9.758;2023-01-06T09:17:28;2.63;;;1.00;;
5650;SDS011;40241;52.684;9.758;2023-01-06T09:19:54;1.53;;;0.80;;
5650;SDS011;40241;52.684;9.758;2023-01-06T09:22:19;1.07;;;0.97;;
5650;SDS011;40241;52.684;9.758;2023-01-06T09:24:45;1.20;;;1.10;;
5650;SDS011;40241;52.684;9.758;2023-01-06T09:27:10;4.20;;;1.13;;
5650;SDS011;40241;52.684;9.758;2023-01-06T09:29:35;1.47;;;1.03;;
5650;SDS011;40241;52.684;9.758;2023-01-06T09:32:01;2.33;;;1.00;;
5650;SDS011;40241;52.684;9.758;2023-01-06T09:34:27;1.07;;;0.97;;
5650;SDS011;40241;52.684;9.758;2023-01-06T09:36:52;1.33;;;1.00;;
5650;SDS011;40241;52.684;9.758;2023-01-06T09:39:18;1.73;;;0.80;;
5650;SDS011;40241;52.684;9.758;2023-01-06T09:41:49;1.27;;;1.17;;
5650;SDS011;40241;52.684;9.758;2023-01-06T09:45:19;0.77;;;0.77;;
5650;SDS011;40241;52.684;9.758;2023-01-06T09:47:34;1.37;;;0.97;;
5650;SDS011;40241;52.684;9.758;2023-01-06T09:53:12;3.10;;;1.13;;
5650;SDS011;40241;52.684;9.758;2023-01-06T09:55:48;1.50;;;0.87;;
5650;SDS011;40241;52.684;9.758;2023-01-06T09:58:17;0.80;;;0.70;;
5650;SDS011;40241;52.684;9.758;2023-01-06T10:00:49;1.40;;;0.97;;
5650;SDS011;40241;52.684;9.758;2023-01-06T10:03:20;3.17;;;1.07;;
5650;SDS011;40241;52.684;9.758;2023-01-06T10:11:24;1.00;;;0.80;;
5650;SDS011;40241;52.684;9.758;2023-01-06T10:14:02;1.10;;;0.77;;
5650;SDS011;40241;52.684;9.758;2023-01-06T10:25:52;1.37;;;1.27;;
5650;SDS011;40241;52.684;9.758;2023-01-06T10:28:28;1.67;;;0.80;;
5650;SDS011;40241;52.684;9.758;2023-01-06T10:31:00;1.47;;;1.00;;
5650;SDS011;40241;52.684;9.758;2023-01-06T10:33:34;0.93;;;0.93;;
5650;SDS011;40241;52.684;9.758;2023-01-06T10:36:08;1.37;;;1.20;;
5650;SDS011;40241;52.684;9.758;2023-01-06T10:38:37;3.37;;;1.47;;
5650;SDS011;40241;52.684;9.758;2023-01-06T10:44:17;1.33;;;1.33;;
5650;SDS011;40241;52.684;9.758;2023-01-06T10:46:43;1.30;;;1.20;;
5650;SDS011;40241;52.684;9.758;2023-01-06T10:49:13;1.43;;;1.17;;
5650;SDS011;40241;52.684;9.758;2023-01-06T10:51:42;1.50;;;1.30;;
5650;SDS011;40241;52.684;9.758;2023-01-06T10:54:11;1.20;;;1.13;;
5650;SDS011;40241;52.684;9.758;2023-01-06T10:56:40;1.33;;;1.03;;
5650;SDS011;40241;52.684;9.758;2023-01-06T10:59:10;2.10;;;1.50;;
5650;SDS011;40241;52.684;9.758;2023-01-06T11:01:49;1.80;;;1.70;;
5650;SDS011;40241;52.684;9.758;2023-01-06T11:04:19;1.97;;;1.50;;
5650;SDS011;40241;52.684;9.758;2023-01-06T11:06:49;1.30;;;1.30;;
5650;SDS011;40241;52.684;9.758;2023-01-06T11:12:10;1.20;;;1.20;;
5650;SDS011;40241;52.684;9.758;2023-01-06T11:14:40;1.50;;;1.40;;
5650;SDS011;40241;52.684;9.758;2023-01-06T11:17:06;1.20;;;1.20;;
5650;SDS011;40241;52.684;9.758;2023-01-06T11:19:38;1.10;;;1.10;;
5650;SDS011;40241;52.684;9.758;2023-01-06T11:22:30;1.13;;;1.00;;
5650;SDS011;40241;52.684;9.758;2023-01-06T11:24:53;1.27;;;1.17;;
5650;SDS011;40241;52.684;9.758;2023-01-06T11:27:19;1.43;;;1.33;;
5650;SDS011;40241;52.684;9.758;2023-01-06T11:29:44;1.30;;;1.27;;
5650;SDS011;40241;52.684;9.758;2023-01-06T11:32:20;1.93;;;1.50;;
5650;SDS011;40241;52.684;9.758;2023-01-06T11:34:55;1.40;;;1.40;;
5650;SDS011;40241;52.684;9.758;2023-01-06T11:37:39;1.23;;;1.23;;
5650;SDS011;40241;52.684;9.758;2023-01-06T11:40:16;1.30;;;1.20;;
5650;SDS011;40241;52.684;9.758;2023-01-06T11:42:52;1.20;;;1.20;;
5650;SDS011;40241;52.684;9.758;2023-01-06T11:48:32;1.37;;;1.10;;
5650;SDS011;40241;52.684;9.758;2023-01-06T11:51:01;1.00;;;1.00;;
5650;SDS011;40241;52.684;9.758;2023-01-06T11:53:28;1.20;;;1.20;;
5650;SDS011;40241;52.684;9.758;2023-01-06T11:56:36;2.70;;;1.50;;
5650;SDS011;40241;52.684;9.758;2023-01-06T11:59:07;3.03;;;1.30;;
5650;SDS011;40241;52.684;9.758;2023-01-06T12:01:37;1.60;;;1.50;;
5650;SDS011;40241;52.684;9.758;2023-01-06T12:06:59;2.10;;;1.10;;
5650;SDS011;40241;52.684;9.758;2023-01-06T12:09:39;1.33;;;1.33;;
5650;SDS011;40241;52.684;9.758;2023-01-06T12:12:09;2.87;;;1.30;;
5650;SDS011;40241;52.684;9.758;2023-01-06T12:14:43;1.20;;;1.10;;
5650;SDS011;40241;52.684;9.758;2023-01-06T12:17:11;1.37;;;1.27;;
5650;SDS011;40241;52.684;9.758;2023-01-06T12:19:40;0.87;;;0.87;;
5650;SDS011;40241;52.684;9.758;2023-01-06T12:22:54;1.13;;;1.13;;
5650;SDS011;40241;52.684;9.758;2023-01-06T12:25:05;1.03;;;1.03;;
5650;SDS011;40241;52.684;9.758;2023-01-06T12:27:44;0.77;;;0.77;;
5650;SDS011;40241;52.684;9.758;2023-01-06T12:30:20;0.80;;;0.77;;
5650;SDS011;40241;52.684;9.758;2023-01-06T12:32:50;2.13;;;1.10;;
5650;SDS011;40241;52.684;9.758;2023-01-06T12:35:20;5.03;;;1.30;;
5650;SDS011;40241;52.684;9.758;2023-01-06T12:37:54;0.80;;;0.80;;
5650;SDS011;40241;52.684;9.758;2023-01-06T12:40:26;0.67;;;0.60;;
5650;SDS011;40241;52.684;9.758;2023-01-06T12:43:08;0.50;;;0.50;;
5650;SDS011;40241;52.684;9.758;2023-01-06T12:51:15;0.73;;;0.60;;
5650;SDS011;40241;52.684;9.758;2023-01-06T12:53:51;2.20;;;0.63;;
5650;SDS011;40241;52.684;9.758;2023-01-06T13:04:40;0.67;;;0.67;;
5650;SDS011;40241;52.684;9.758;2023-01-06T13:07:32;0.70;;;0.40;;
5650;SDS011;40241;52.684;9.758;2023-01-06T13:12:49;1.40;;;0.60;;
5650;SDS011;40241;52.684;9.758;2023-01-06T13:15:29;1.20;;;0.53;;
5650;SDS011;40241;52.684;9.758;2023-01-06T13:20:50;0.90;;;0.60;;
5650;SDS011;40241;52.684;9.758;2023-01-06T13:26:36;0.60;;;0.50;;
5650;SDS011;40241;52.684;9.758;2023-01-06T13:32:08;1.27;;;0.50;;
5650;SDS011;40241;52.684;9.758;2023-01-06T13:42:26;1.47;;;0.70;;
5650;SDS011;40241;52.684;9.758;2023-01-06T13:45:03;1.23;;;0.60;;
5650;SDS011;40241;52.684;9.758;2023-01-06T13:47:32;4.73;;;0.90;;
5650;SDS011;40241;52.684;9.758;2023-01-06T13:49:59;0.90;;;0.90;;
5650;SDS011;40241;52.684;9.758;2023-01-06T13:52:26;3.33;;;1.10;;
5650;SDS011;40241;52.684;9.758;2023-01-06T13:55:05;3.20;;;0.80;;
5650;SDS011;40241;52.684;9.758;2023-01-06T13:57:46;1.17;;;0.60;;
5650;SDS011;40241;52.684;9.758;2023-01-06T14:00:16;0.77;;;0.40;;
5650;SDS011;40241;52.684;9.758;2023-01-06T14:13:03;0.60;;;0.47;;
5650;SDS011;40241;52.684;9.758;2023-01-06T14:15:49;1.97;;;0.60;;
5650;SDS011;40241;52.684;9.758;2023-01-06T14:18:30;0.97;;;0.70;;
5650;SDS011;40241;52.684;9.758;2023-01-06T14:20:59;1.30;;;0.70;;
5650;SDS011;40241;52.684;9.758;2023-01-06T14:23:27;6.67;;;0.73;;
5650;SDS011;40241;52.684;9.758;2023-01-06T14:25:54;0.93;;;0.70;;
5650;SDS011;40241;52.684;9.758;2023-01-06T14:28:22;0.80;;;0.60;;
5650;SDS011;40241;52.684;9.758;2023-01-06T14:30:50;1.13;;;0.87;;
5650;SDS011;40241;52.684;9.758;2023-01-06T14:33:51;1.17;;;0.70;;
5650;SDS011;40241;52.684;9.758;2023-01-06T14:36:18;1.23;;;0.77;;
5650;SDS011;40241;52.684;9.758;2023-01-06T14:38:48;1.10;;;0.70;;
5650;SDS011;40241;52.684;9.758;2023-01-06T14:44:05;1.37;;;0.50;;
5650;SDS011;40241;52.684;9.758;2023-01-06T14:46:42;1.03;;;0.70;;
5650;SDS011;40241;52.684;9.758;2023-01-06T14:52:18;2.47;;;0.87;;
5650;SDS011;40241;52.684;9.758;2023-01-06T14:54:48;2.33;;;0.70;;
5650;SDS011;40241;52.684;9.758;2023-01-06T15:02:32;1.27;;;0.70;;
5650;SDS011;40241;52.684;9.758;2023-01-06T15:04:58;1.00;;;0.50;;
5650;SDS011;40241;52.684;9.758;2023-01-06T15:07:24;1.10;;;0.80;;
5650;SDS011;40241;52.684;9.758;2023-01-06T15:09:49;3.80;;;0.60;;
5650;SDS011;40241;52.684;9.758;2023-01-06T15:12:29;2.10;;;1.00;;
5650;SDS011;40241;52.684;9.758;2023-01-06T15:14:56;3.80;;;0.93;;
5650;SDS011;40241;52.684;9.758;2023-01-06T15:17:37;0.60;;;0.57;;
5650;SDS011;40241;52.684;9.758;2023-01-06T15:20:04;0.93;;;0.67;;
5650;SDS011;40241;52.684;9.758;2023-01-06T15:22:36;1.90;;;0.50;;
5650;SDS011;40241;52.684;9.758;2023-01-06T15:25:03;0.80;;;0.60;;
5650;SDS011;40241;52.684;9.758;2023-01-06T15:27:30;1.60;;;0.40;;
5650;SDS011;40241;52.684;9.758;2023-01-06T15:29:55;4.30;;;0.50;;
5650;SDS011;40241;52.684;9.758;2023-01-06T15:32:23;2.30;;;1.10;;
5650;SDS011;40241;52.684;9.758;2023-01-06T15:34:50;1.47;;;0.70;;
5650;SDS011;40241;52.684;9.758;2023-01-06T15:37:18;2.50;;;0.90;;
5650;SDS011;40241;52.684;9.758;2023-01-06T15:39:47;4.10;;;0.90;;
5650;SDS011;40241;52.684;9.758;2023-01-06T15:42:14;0.70;;;0.70;;
5650;SDS011;40241;52.684;9.758;2023-01-06T15:44:51;1.70;;;0.70;;
5650;SDS011;40241;52.684;9.758;2023-01-06T15:47:43;6.00;;;0.50;;
5650;SDS011;40241;52.684;9.758;2023-01-06T15:50:18;0.60;;;0.60;;
5650;SDS011;40241;52.684;9.758;2023-01-06T15:55:26;1.07;;;0.60;;
5650;SDS011;40241;52.684;9.758;2023-01-06T15:58:04;0.77;;;0.50;;
5650;SDS011;40241;52.684;9.758;2023-01-06T16:01:15;4.20;;;1.20;;
5650;SDS011;40241;52.684;9.758;2023-01-06T16:03:32;1.30;;;0.60;;
5650;SDS011;40241;52.684;9.758;2023-01-06T16:06:03;1.53;;;0.63;;
5650;SDS011;40241;52.684;9.758;2023-01-06T16:08:33;3.37;;;0.57;;
5650;SDS011;40241;52.684;9.758;2023-01-06T16:14:03;1.10;;;0.70;;
5650;SDS011;40241;52.684;9.758;2023-01-06T16:16:30;1.50;;;0.70;;
5650;SDS011;40241;52.684;9.758;2023-01-06T16:21:54;1.20;;;0.83;;
5650;SDS011;40241;52.684;9.758;2023-01-06T16:24:21;1.77;;;0.93;;
5650;SDS011;40241;52.684;9.758;2023-01-06T16:26:58;2.67;;;1.10;;
5650;SDS011;40241;52.684;9.758;2023-01-06T16:29:30;2.40;;;0.93;;
5650;SDS011;40241;52.684;9.758;2023-01-06T16:34:53;2.70;;;1.23;;
5650;SDS011;40241;52.684;9.758;2023-01-06T16:37:19;1.80;;;1.00;;
5650;SDS011;40241;52.684;9.758;2023-01-06T16:39:45;2.87;;;0.77;;
5650;SDS011;40241;52.684;9.758;2023-01-06T16:45:01;0.83;;;0.80;;
5650;SDS011;40241;52.684;9.758;2023-01-06T16:47:30;1.13;;;0.80;;
5650;SDS011;40241;52.684;9.758;2023-01-06T16:49:56;3.23;;;0.80;;
5650;SDS011;40241;52.684;9.758;2023-01-06T16:52:24;1.17;;;1.17;;
5650;SDS011;40241;52.684;9.758;2023-01-06T16:54:53;1.83;;;1.30;;
5650;SDS011;40241;52.684;9.758;2023-01-06T16:57:21;1.50;;;1.40;;
5650;SDS011;40241;52.684;9.758;2023-01-06T16:59:47;1.83;;;1.50;;
5650;SDS011;40241;52.684;9.758;2023-01-06T17:02:16;1.90;;;1.33;;
5650;SDS011;40241;52.684;9.758;2023-01-06T17:04:43;3.10;;;1.70;;
5650;SDS011;40241;52.684;9.758;2023-01-06T17:07:10;1.73;;;1.40;;
5650;SDS011;40241;52.684;9.758;2023-01-06T17:09:38;5.30;;;1.13;;
5650;SDS011;40241;52.684;9.758;2023-01-06T17:12:07;1.90;;;1.40;;
5650;SDS011;40241;52.684;9.758;2023-01-06T17:14:36;2.00;;;1.43;;
5650;SDS011;40241;52.684;9.758;2023-01-06T17:17:09;1.37;;;1.27;;
5650;SDS011;40241;52.684;9.758;2023-01-06T17:19:43;3.30;;;1.00;;
5650;SDS011;40241;52.684;9.758;2023-01-06T17:24:46;1.10;;;0.90;;
5650;SDS011;40241;52.684;9.758;2023-01-06T17:27:24;0.83;;;0.83;;
5650;SDS011;40241;52.684;9.758;2023-01-06T17:29:54;1.17;;;0.70;;
5650;SDS011;40241;52.684;9.758;2023-01-06T17:32:26;1.10;;;0.80;;
5650;SDS011;40241;52.684;9.758;2023-01-06T17:34:57;1.70;;;0.70;;
5650;SDS011;40241;52.684;9.758;2023-01-06T17:37:23;2.20;;;0.80;;
5650;SDS011;40241;52.684;9.758;2023-01-06T17:39:52;2.13;;;0.80;;